sensor_id;sensor_type;location;lat;lon;timestamp;temperature;humidity
38938;DHT22;24727;51.974;20.868;2022-11-15T00:01:23;5.90;62.90
38938;DHT22;24727;51.974;20.868;2022-11-15T00:03:53;6.10;69.80
38938;DHT22;24727;51.974;20.868;2022-11-15T00:06:19;6.10;64.00
38938;DHT22;24727;51.974;20.868;2022-11-15T00:08:46;6.00;58.70
38938;DHT22;24727;51.974;20.868;2022-11-15T00:11:12;6.10;54.90
38938;DHT22;24727;51.974;20.868;2022-11-15T00:13:45;6.00;47.30
38938;DHT22;24727;51.974;20.868;2022-11-15T00:16:17;5.80;42.70
38938;DHT22;24727;51.974;20.868;2022-11-15T00:18:43;5.80;51.10
38938;DHT22;24727;51.974;20.868;2022-11-15T00:21:11;5.90;58.00
38938;DHT22;24727;51.974;20.868;2022-11-15T00:23:38;6.00;58.70
38938;DHT22;24727;51.974;20.868;2022-11-15T00:26:04;6.00;56.00
38938;DHT22;24727;51.974;20.868;2022-11-15T00:28:32;5.90;50.30
38938;DHT22;24727;51.974;20.868;2022-11-15T00:31:06;5.80;54.40
38938;DHT22;24727;51.974;20.868;2022-11-15T00:33:33;5.90;53.30
38938;DHT22;24727;51.974;20.868;2022-11-15T00:36:09;5.80;56.40
38938;DHT22;24727;51.974;20.868;2022-11-15T00:38:37;5.70;58.30
38938;DHT22;24727;51.974;20.868;2022-11-15T00:41:04;5.70;62.20
38938;DHT22;24727;51.974;20.868;2022-11-15T00:43:31;5.70;66.10
38938;DHT22;24727;51.974;20.868;2022-11-15T00:45:57;5.90;70.70
38938;DHT22;24727;51.974;20.868;2022-11-15T00:48:23;5.90;68.10
38938;DHT22;24727;51.974;20.868;2022-11-15T00:50:49;6.00;68.20
38938;DHT22;24727;51.974;20.868;2022-11-15T00:53:16;6.00;68.10
38938;DHT22;24727;51.974;20.868;2022-11-15T00:55:42;6.00;64.10
38938;DHT22;24727;51.974;20.868;2022-11-15T00:58:09;5.90;57.00
38938;DHT22;24727;51.974;20.868;2022-11-15T01:00:35;6.00;57.50
38938;DHT22;24727;51.974;20.868;2022-11-15T01:03:02;6.00;57.80
38938;DHT22;24727;51.974;20.868;2022-11-15T01:05:37;6.00;56.00
38938;DHT22;24727;51.974;20.868;2022-11-15T01:08:04;6.10;54.60
38938;DHT22;24727;51.974;20.868;2022-11-15T01:10:30;6.10;54.60
38938;DHT22;24727;51.974;20.868;2022-11-15T01:12:56;6.20;54.60
38938;DHT22;24727;51.974;20.868;2022-11-15T01:15:23;6.20;45.50
38938;DHT22;24727;51.974;20.868;2022-11-15T01:17:50;6.10;36.50
38938;DHT22;24727;51.974;20.868;2022-11-15T01:20:16;5.90;36.40
38938;DHT22;24727;51.974;20.868;2022-11-15T01:22:49;5.90;42.30
38938;DHT22;24727;51.974;20.868;2022-11-15T01:25:15;5.70;45.60
38938;DHT22;24727;51.974;20.868;2022-11-15T01:27:41;5.80;57.60
38938;DHT22;24727;51.974;20.868;2022-11-15T01:30:08;5.80;59.40
38938;DHT22;24727;51.974;20.868;2022-11-15T01:32:35;5.80;65.40
38938;DHT22;24727;51.974;20.868;2022-11-15T01:35:01;5.80;66.10
38938;DHT22;24727;51.974;20.868;2022-11-15T01:37:27;5.70;68.40
38938;DHT22;24727;51.974;20.868;2022-11-15T01:39:55;5.80;69.20
38938;DHT22;24727;51.974;20.868;2022-11-15T01:42:21;5.80;70.40
38938;DHT22;24727;51.974;20.868;2022-11-15T01:44:50;5.70;70.20
38938;DHT22;24727;51.974;20.868;2022-11-15T01:47:25;5.70;72.00
38938;DHT22;24727;51.974;20.868;2022-11-15T01:50:01;5.90;76.30
38938;DHT22;24727;51.974;20.868;2022-11-15T01:52:31;5.90;74.90
38938;DHT22;24727;51.974;20.868;2022-11-15T01:55:16;5.80;69.20
38938;DHT22;24727;51.974;20.868;2022-11-15T01:57:48;5.90;73.30
38938;DHT22;24727;51.974;20.868;2022-11-15T02:02:50;6.00;70.90
38938;DHT22;24727;51.974;20.868;2022-11-15T02:05:17;5.90;68.20
38938;DHT22;24727;51.974;20.868;2022-11-15T02:07:43;5.90;64.80
38938;DHT22;24727;51.974;20.868;2022-11-15T02:10:13;5.80;64.00
38938;DHT22;24727;51.974;20.868;2022-11-15T02:12:39;5.70;66.90
38938;DHT22;24727;51.974;20.868;2022-11-15T02:15:07;5.70;71.60
38938;DHT22;24727;51.974;20.868;2022-11-15T02:23:51;5.80;70.80
38938;DHT22;24727;51.974;20.868;2022-11-15T02:32:15;5.90;72.10
38938;DHT22;24727;51.974;20.868;2022-11-15T02:35:10;5.90;71.90
38938;DHT22;24727;51.974;20.868;2022-11-15T02:37:45;5.90;71.90
38938;DHT22;24727;51.974;20.868;2022-11-15T02:40:39;6.00;70.20
38938;DHT22;24727;51.974;20.868;2022-11-15T02:43:12;6.10;62.20
38938;DHT22;24727;51.974;20.868;2022-11-15T02:46:13;6.10;52.10
38938;DHT22;24727;51.974;20.868;2022-11-15T02:48:41;6.00;46.60
38938;DHT22;24727;51.974;20.868;2022-11-15T02:51:09;6.00;45.30
38938;DHT22;24727;51.974;20.868;2022-11-15T02:53:36;6.10;47.50
38938;DHT22;24727;51.974;20.868;2022-11-15T02:56:02;6.00;39.40
38938;DHT22;24727;51.974;20.868;2022-11-15T03:01:38;5.70;46.60
38938;DHT22;24727;51.974;20.868;2022-11-15T03:12:34;6.00;63.30
38938;DHT22;24727;51.974;20.868;2022-11-15T03:15:24;6.00;56.90
38938;DHT22;24727;51.974;20.868;2022-11-15T03:18:04;5.90;54.80
38938;DHT22;24727;51.974;20.868;2022-11-15T03:20:34;5.90;55.90
38938;DHT22;24727;51.974;20.868;2022-11-15T03:23:04;5.80;47.80
38938;DHT22;24727;51.974;20.868;2022-11-15T03:25:33;5.70;49.50
38938;DHT22;24727;51.974;20.868;2022-11-15T03:28:04;5.60;52.30
38938;DHT22;24727;51.974;20.868;2022-11-15T03:30:33;5.50;65.00
38938;DHT22;24727;51.974;20.868;2022-11-15T03:33:02;5.50;74.70
38938;DHT22;24727;51.974;20.868;2022-11-15T03:35:37;5.50;74.80
38938;DHT22;24727;51.974;20.868;2022-11-15T03:40:40;5.50;80.00
38938;DHT22;24727;51.974;20.868;2022-11-15T03:43:13;5.60;82.50
38938;DHT22;24727;51.974;20.868;2022-11-15T03:45:54;5.80;83.40
38938;DHT22;24727;51.974;20.868;2022-11-15T03:48:24;5.70;81.00
38938;DHT22;24727;51.974;20.868;2022-11-15T03:50:53;5.80;79.60
38938;DHT22;24727;51.974;20.868;2022-11-15T03:53:20;5.80;78.50
38938;DHT22;24727;51.974;20.868;2022-11-15T03:55:46;5.80;77.40
38938;DHT22;24727;51.974;20.868;2022-11-15T03:58:11;5.90;76.70
38938;DHT22;24727;51.974;20.868;2022-11-15T04:00:37;5.90;75.90
38938;DHT22;24727;51.974;20.868;2022-11-15T04:03:04;5.90;73.70
38938;DHT22;24727;51.974;20.868;2022-11-15T04:05:31;5.90;72.90
38938;DHT22;24727;51.974;20.868;2022-11-15T04:07:57;5.90;69.30
38938;DHT22;24727;51.974;20.868;2022-11-15T04:10:23;5.90;65.10
38938;DHT22;24727;51.974;20.868;2022-11-15T04:12:49;5.70;58.80
38938;DHT22;24727;51.974;20.868;2022-11-15T04:15:17;5.60;60.80
38938;DHT22;24727;51.974;20.868;2022-11-15T04:17:49;5.70;64.70
38938;DHT22;24727;51.974;20.868;2022-11-15T04:20:27;5.50;63.60
38938;DHT22;24727;51.974;20.868;2022-11-15T04:23:17;5.50;67.30
38938;DHT22;24727;51.974;20.868;2022-11-15T04:26:05;5.50;71.00
38938;DHT22;24727;51.974;20.868;2022-11-15T04:28:32;5.60;73.70
38938;DHT22;24727;51.974;20.868;2022-11-15T04:31:00;5.50;70.80
38938;DHT22;24727;51.974;20.868;2022-11-15T04:33:27;5.40;70.10
38938;DHT22;24727;51.974;20.868;2022-11-15T04:35:52;5.50;78.60
38938;DHT22;24727;51.974;20.868;2022-11-15T04:38:37;5.50;78.00
38938;DHT22;24727;51.974;20.868;2022-11-15T04:41:04;5.40;73.60
38938;DHT22;24727;51.974;20.868;2022-11-15T04:43:30;5.30;74.70
38938;DHT22;24727;51.974;20.868;2022-11-15T04:45:56;5.30;75.00
38938;DHT22;24727;51.974;20.868;2022-11-15T04:48:21;5.40;78.70
38938;DHT22;24727;51.974;20.868;2022-11-15T04:50:49;5.40;80.00
38938;DHT22;24727;51.974;20.868;2022-11-15T04:53:15;5.40;80.90
38938;DHT22;24727;51.974;20.868;2022-11-15T04:55:45;5.60;83.00
38938;DHT22;24727;51.974;20.868;2022-11-15T04:58:13;5.70;84.00
38938;DHT22;24727;51.974;20.868;2022-11-15T05:00:39;5.70;79.80
38938;DHT22;24727;51.974;20.868;2022-11-15T05:03:05;5.80;79.30
38938;DHT22;24727;51.974;20.868;2022-11-15T05:05:52;5.70;74.50
38938;DHT22;24727;51.974;20.868;2022-11-15T05:08:17;5.70;71.80
38938;DHT22;24727;51.974;20.868;2022-11-15T05:10:44;5.80;70.60
38938;DHT22;24727;51.974;20.868;2022-11-15T05:13:10;5.80;65.60
38938;DHT22;24727;51.974;20.868;2022-11-15T05:15:36;5.70;59.30
38938;DHT22;24727;51.974;20.868;2022-11-15T05:18:03;5.60;56.30
38938;DHT22;24727;51.974;20.868;2022-11-15T05:20:30;5.40;56.00
38938;DHT22;24727;51.974;20.868;2022-11-15T05:22:56;5.40;58.20
38938;DHT22;24727;51.974;20.868;2022-11-15T05:25:22;5.40;61.60
38938;DHT22;24727;51.974;20.868;2022-11-15T05:27:48;5.30;63.10
38938;DHT22;24727;51.974;20.868;2022-11-15T05:30:15;5.50;70.00
38938;DHT22;24727;51.974;20.868;2022-11-15T05:32:41;5.70;74.40
38938;DHT22;24727;51.974;20.868;2022-11-15T05:35:10;5.70;71.70
38938;DHT22;24727;51.974;20.868;2022-11-15T05:37:38;5.50;64.00
38938;DHT22;24727;51.974;20.868;2022-11-15T05:40:05;5.50;65.10
38938;DHT22;24727;51.974;20.868;2022-11-15T05:42:31;5.60;65.40
38938;DHT22;24727;51.974;20.868;2022-11-15T05:44:58;5.50;59.20
38938;DHT22;24727;51.974;20.868;2022-11-15T05:47:26;5.50;61.70
38938;DHT22;24727;51.974;20.868;2022-11-15T05:49:55;5.60;67.90
38938;DHT22;24727;51.974;20.868;2022-11-15T05:52:25;5.60;67.70
38938;DHT22;24727;51.974;20.868;2022-11-15T05:54:54;5.70;70.00
38938;DHT22;24727;51.974;20.868;2022-11-15T05:57:21;5.70;68.60
38938;DHT22;24727;51.974;20.868;2022-11-15T05:59:48;5.60;66.10
38938;DHT22;24727;51.974;20.868;2022-11-15T06:02:14;5.70;69.60
38938;DHT22;24727;51.974;20.868;2022-11-15T06:04:40;5.70;70.20
38938;DHT22;24727;51.974;20.868;2022-11-15T06:07:06;5.70;64.00
38938;DHT22;24727;51.974;20.868;2022-11-15T06:09:32;5.60;61.00
38938;DHT22;24727;51.974;20.868;2022-11-15T06:11:58;5.70;62.00
38938;DHT22;24727;51.974;20.868;2022-11-15T06:14:23;5.80;60.00
38938;DHT22;24727;51.974;20.868;2022-11-15T06:16:49;5.80;57.20
38938;DHT22;24727;51.974;20.868;2022-11-15T06:19:15;5.80;58.60
38938;DHT22;24727;51.974;20.868;2022-11-15T06:21:42;5.90;58.00
38938;DHT22;24727;51.974;20.868;2022-11-15T06:24:10;5.90;56.10
38938;DHT22;24727;51.974;20.868;2022-11-15T06:26:36;6.10;55.10
38938;DHT22;24727;51.974;20.868;2022-11-15T06:29:04;6.00;43.80
38938;DHT22;24727;51.974;20.868;2022-11-15T06:31:31;5.90;33.80
38938;DHT22;24727;51.974;20.868;2022-11-15T06:33:59;5.80;28.30
38938;DHT22;24727;51.974;20.868;2022-11-15T06:36:26;5.80;30.00
38938;DHT22;24727;51.974;20.868;2022-11-15T06:38:52;5.90;35.20
38938;DHT22;24727;51.974;20.868;2022-11-15T06:41:18;5.90;31.50
38938;DHT22;24727;51.974;20.868;2022-11-15T06:43:46;5.90;35.00
38938;DHT22;24727;51.974;20.868;2022-11-15T06:46:13;5.80;27.40
38938;DHT22;24727;51.974;20.868;2022-11-15T06:48:39;5.80;28.60
38938;DHT22;24727;51.974;20.868;2022-11-15T06:51:06;6.00;34.20
38938;DHT22;24727;51.974;20.868;2022-11-15T06:53:33;6.10;24.60
38938;DHT22;24727;51.974;20.868;2022-11-15T06:56:04;6.00;22.00
38938;DHT22;24727;51.974;20.868;2022-11-15T06:58:31;6.00;22.10
38938;DHT22;24727;51.974;20.868;2022-11-15T07:01:07;6.10;26.70
38938;DHT22;24727;51.974;20.868;2022-11-15T07:03:38;6.10;26.20
38938;DHT22;24727;51.974;20.868;2022-11-15T07:06:06;6.10;13.90
38938;DHT22;24727;51.974;20.868;2022-11-15T07:08:35;6.00;8.50
38938;DHT22;24727;51.974;20.868;2022-11-15T07:11:05;6.00;17.80
38938;DHT22;24727;51.974;20.868;2022-11-15T07:13:32;6.10;20.00
38938;DHT22;24727;51.974;20.868;2022-11-15T07:16:03;6.20;17.80
38938;DHT22;24727;51.974;20.868;2022-11-15T07:18:29;6.20;16.10
38938;DHT22;24727;51.974;20.868;2022-11-15T07:20:59;6.20;11.10
38938;DHT22;24727;51.974;20.868;2022-11-15T07:23:28;6.20;7.80
38938;DHT22;24727;51.974;20.868;2022-11-15T07:25:55;6.20;9.00
38938;DHT22;24727;51.974;20.868;2022-11-15T07:28:21;6.10;5.40
38938;DHT22;24727;51.974;20.868;2022-11-15T07:30:48;6.20;7.40
38938;DHT22;24727;51.974;20.868;2022-11-15T07:33:14;6.20;1.00
38938;DHT22;24727;51.974;20.868;2022-11-15T07:35:40;6.20;1.00
38938;DHT22;24727;51.974;20.868;2022-11-15T07:40:43;5.60;1.00
38938;DHT22;24727;51.974;20.868;2022-11-15T07:43:10;5.40;12.20
38938;DHT22;24727;51.974;20.868;2022-11-15T07:45:42;5.40;23.80
38938;DHT22;24727;51.974;20.868;2022-11-15T07:48:09;5.60;39.70
38938;DHT22;24727;51.974;20.868;2022-11-15T07:50:35;5.80;53.70
38938;DHT22;24727;51.974;20.868;2022-11-15T07:53:01;6.00;55.50
38938;DHT22;24727;51.974;20.868;2022-11-15T07:55:28;6.00;43.90
38938;DHT22;24727;51.974;20.868;2022-11-15T07:58:06;5.80;35.00
38938;DHT22;24727;51.974;20.868;2022-11-15T08:00:33;5.70;36.10
38938;DHT22;24727;51.974;20.868;2022-11-15T08:03:04;5.80;38.70
38938;DHT22;24727;51.974;20.868;2022-11-15T08:05:30;5.70;39.80
38938;DHT22;24727;51.974;20.868;2022-11-15T08:07:56;5.90;49.30
38938;DHT22;24727;51.974;20.868;2022-11-15T08:10:22;6.10;51.50
38938;DHT22;24727;51.974;20.868;2022-11-15T08:13:03;6.00;46.20
38938;DHT22;24727;51.974;20.868;2022-11-15T08:15:30;6.10;50.00
38938;DHT22;24727;51.974;20.868;2022-11-15T08:17:58;6.40;49.10
38938;DHT22;24727;51.974;20.868;2022-11-15T08:20:25;6.50;39.70
38938;DHT22;24727;51.974;20.868;2022-11-15T08:22:52;6.50;36.40
38938;DHT22;24727;51.974;20.868;2022-11-15T08:25:19;6.20;18.90
38938;DHT22;24727;51.974;20.868;2022-11-15T08:27:46;6.40;31.20
38938;DHT22;24727;51.974;20.868;2022-11-15T08:30:12;6.30;17.30
38938;DHT22;24727;51.974;20.868;2022-11-15T08:32:39;6.30;20.90
38938;DHT22;24727;51.974;20.868;2022-11-15T08:35:05;6.40;12.30
38938;DHT22;24727;51.974;20.868;2022-11-15T08:37:32;6.40;13.10
38938;DHT22;24727;51.974;20.868;2022-11-15T08:39:58;6.40;10.90
38938;DHT22;24727;51.974;20.868;2022-11-15T08:42:24;6.40;18.40
38938;DHT22;24727;51.974;20.868;2022-11-15T08:44:50;6.40;7.70
38938;DHT22;24727;51.974;20.868;2022-11-15T08:47:16;6.40;4.80
38938;DHT22;24727;51.974;20.868;2022-11-15T08:49:42;6.20;1.00
38938;DHT22;24727;51.974;20.868;2022-11-15T08:52:10;6.30;18.30
38938;DHT22;24727;51.974;20.868;2022-11-15T08:54:36;6.30;17.80
38938;DHT22;24727;51.974;20.868;2022-11-15T08:57:03;6.50;14.10
38938;DHT22;24727;51.974;20.868;2022-11-15T08:59:29;6.40;15.40
38938;DHT22;24727;51.974;20.868;2022-11-15T09:01:54;6.20;10.90
38938;DHT22;24727;51.974;20.868;2022-11-15T09:04:20;6.40;20.40
38938;DHT22;24727;51.974;20.868;2022-11-15T09:06:46;6.50;17.30
38938;DHT22;24727;51.974;20.868;2022-11-15T09:09:12;6.30;18.80
38938;DHT22;24727;51.974;20.868;2022-11-15T09:11:39;6.20;15.20
38938;DHT22;24727;51.974;20.868;2022-11-15T09:14:05;6.40;21.40
38938;DHT22;24727;51.974;20.868;2022-11-15T09:16:35;6.70;34.80
38938;DHT22;24727;51.974;20.868;2022-11-15T09:19:01;6.80;23.60
38938;DHT22;24727;51.974;20.868;2022-11-15T09:21:28;6.80;16.70
38938;DHT22;24727;51.974;20.868;2022-11-15T09:23:54;6.70;13.20
38938;DHT22;24727;51.974;20.868;2022-11-15T09:26:20;6.80;17.20
38938;DHT22;24727;51.974;20.868;2022-11-15T09:28:46;6.90;21.30
38938;DHT22;24727;51.974;20.868;2022-11-15T09:31:12;7.10;22.80
38938;DHT22;24727;51.974;20.868;2022-11-15T09:33:38;7.20;5.70
38938;DHT22;24727;51.974;20.868;2022-11-15T09:36:07;7.20;1.00
38938;DHT22;24727;51.974;20.868;2022-11-15T09:38:34;7.20;1.00
38938;DHT22;24727;51.974;20.868;2022-11-15T09:49:16;7.40;1.00
38938;DHT22;24727;51.974;20.868;2022-11-15T09:51:49;7.40;1.00
38938;DHT22;24727;51.974;20.868;2022-11-15T09:54:26;7.50;1.00
38938;DHT22;24727;51.974;20.868;2022-11-15T09:56:56;7.40;1.00
38938;DHT22;24727;51.974;20.868;2022-11-15T10:02:31;7.20;1.00
38938;DHT22;24727;51.974;20.868;2022-11-15T10:05:01;7.20;1.00
38938;DHT22;24727;51.974;20.868;2022-11-15T10:07:34;7.50;1.00
38938;DHT22;24727;51.974;20.868;2022-11-15T10:13:00;7.70;1.00
38938;DHT22;24727;51.974;20.868;2022-11-15T10:15:27;7.60;1.00
38938;DHT22;24727;51.974;20.868;2022-11-15T10:20:29;7.40;1.00
38938;DHT22;24727;51.974;20.868;2022-11-15T10:23:04;7.50;1.00
38938;DHT22;24727;51.974;20.868;2022-11-15T10:25:32;7.50;1.00
38938;DHT22;24727;51.974;20.868;2022-11-15T10:30:47;7.50;1.00
38938;DHT22;24727;51.974;20.868;2022-11-15T10:33:32;7.80;1.00
38938;DHT22;24727;51.974;20.868;2022-11-15T10:36:14;7.90;1.00
38938;DHT22;24727;51.974;20.868;2022-11-15T10:41:32;7.50;1.00
38938;DHT22;24727;51.974;20.868;2022-11-15T10:44:23;7.40;1.00
38938;DHT22;24727;51.974;20.868;2022-11-15T10:49:28;6.70;1.30
38938;DHT22;24727;51.974;20.868;2022-11-15T10:52:17;6.70;18.20
38938;DHT22;24727;51.974;20.868;2022-11-15T10:54:54;6.80;33.40
38938;DHT22;24727;51.974;20.868;2022-11-15T10:57:37;6.90;32.00
38938;DHT22;24727;51.974;20.868;2022-11-15T11:00:05;6.90;32.70
38938;DHT22;24727;51.974;20.868;2022-11-15T11:02:37;7.00;38.30
38938;DHT22;24727;51.974;20.868;2022-11-15T11:05:24;7.20;35.20
38938;DHT22;24727;51.974;20.868;2022-11-15T11:08:03;7.10;25.80
38938;DHT22;24727;51.974;20.868;2022-11-15T11:10:30;7.00;24.50
38938;DHT22;24727;51.974;20.868;2022-11-15T11:13:21;7.30;30.20
38938;DHT22;24727;51.974;20.868;2022-11-15T11:16:36;7.40;25.80
38938;DHT22;24727;51.974;20.868;2022-11-15T11:27:29;7.00;23.10
38938;DHT22;24727;51.974;20.868;2022-11-15T11:30:23;6.80;19.90
38938;DHT22;24727;51.974;20.868;2022-11-15T11:36:27;6.60;46.50
38938;DHT22;24727;51.974;20.868;2022-11-15T11:42:09;6.60;51.50
38938;DHT22;24727;51.974;20.868;2022-11-15T11:50:27;7.10;64.20
38938;DHT22;24727;51.974;20.868;2022-11-15T11:53:25;7.00;49.90
38938;DHT22;24727;51.974;20.868;2022-11-15T11:55:56;6.90;44.90
38938;DHT22;24727;51.974;20.868;2022-11-15T11:58:29;6.90;49.30
38938;DHT22;24727;51.974;20.868;2022-11-15T12:01:20;7.10;54.40
38938;DHT22;24727;51.974;20.868;2022-11-15T12:04:05;7.30;60.70
38938;DHT22;24727;51.974;20.868;2022-11-15T12:07:02;7.00;41.60
38938;DHT22;24727;51.974;20.868;2022-11-15T12:12:31;7.00;33.90
38938;DHT22;24727;51.974;20.868;2022-11-15T12:15:27;7.10;32.50
38938;DHT22;24727;51.974;20.868;2022-11-15T12:17:57;7.00;33.70
38938;DHT22;24727;51.974;20.868;2022-11-15T12:20:32;7.10;35.70
38938;DHT22;24727;51.974;20.868;2022-11-15T12:25:51;7.10;26.00
38938;DHT22;24727;51.974;20.868;2022-11-15T12:30:50;6.90;29.90
38938;DHT22;24727;51.974;20.868;2022-11-15T12:41:24;7.10;22.70
38938;DHT22;24727;51.974;20.868;2022-11-15T12:43:51;6.90;21.40
38938;DHT22;24727;51.974;20.868;2022-11-15T12:49:02;6.80;29.70
38938;DHT22;24727;51.974;20.868;2022-11-15T13:08:09;8.20;78.70
38938;DHT22;24727;51.974;20.868;2022-11-15T13:10:55;8.40;75.80
38938;DHT22;24727;51.974;20.868;2022-11-15T13:13:44;8.50;68.40
38938;DHT22;24727;51.974;20.868;2022-11-15T13:16:19;8.40;49.00
38938;DHT22;24727;51.974;20.868;2022-11-15T13:18:54;8.40;48.50
38938;DHT22;24727;51.974;20.868;2022-11-15T13:21:23;8.50;42.50
38938;DHT22;24727;51.974;20.868;2022-11-15T13:24:16;7.90;1.00
38938;DHT22;24727;51.974;20.868;2022-11-15T13:26:42;8.10;3.90
38938;DHT22;24727;51.974;20.868;2022-11-15T13:29:19;8.00;1.00
38938;DHT22;24727;51.974;20.868;2022-11-15T13:31:46;7.90;1.00
38938;DHT22;24727;51.974;20.868;2022-11-15T13:34:28;7.40;1.00
38938;DHT22;24727;51.974;20.868;2022-11-15T13:36:55;7.10;1.00
38938;DHT22;24727;51.974;20.868;2022-11-15T13:39:34;7.30;9.20
38938;DHT22;24727;51.974;20.868;2022-11-15T13:42:02;7.60;50.60
38938;DHT22;24727;51.974;20.868;2022-11-15T13:44:32;7.90;68.10
38938;DHT22;24727;51.974;20.868;2022-11-15T13:47:29;8.10;72.40
38938;DHT22;24727;51.974;20.868;2022-11-15T13:49:59;8.30;68.70
38938;DHT22;24727;51.974;20.868;2022-11-15T13:52:33;8.40;63.10
38938;DHT22;24727;51.974;20.868;2022-11-15T13:55:18;8.50;55.40
38938;DHT22;24727;51.974;20.868;2022-11-15T13:57:57;8.60;43.50
38938;DHT22;24727;51.974;20.868;2022-11-15T14:03:29;8.60;19.40
38938;DHT22;24727;51.974;20.868;2022-11-15T14:06:15;8.60;17.00
38938;DHT22;24727;51.974;20.868;2022-11-15T14:11:55;8.60;7.60
38938;DHT22;24727;51.974;20.868;2022-11-15T14:14:29;8.60;4.50
38938;DHT22;24727;51.974;20.868;2022-11-15T14:16:57;8.60;5.10
38938;DHT22;24727;51.974;20.868;2022-11-15T14:24:35;8.60;1.00
38938;DHT22;24727;51.974;20.868;2022-11-15T14:27:25;8.50;1.00
38938;DHT22;24727;51.974;20.868;2022-11-15T14:29:53;8.50;1.00
38938;DHT22;24727;51.974;20.868;2022-11-15T14:32:22;8.60;1.00
38938;DHT22;24727;51.974;20.868;2022-11-15T14:34:59;8.60;1.00
38938;DHT22;24727;51.974;20.868;2022-11-15T14:37:33;8.60;1.00
38938;DHT22;24727;51.974;20.868;2022-11-15T14:40:04;8.50;1.00
38938;DHT22;24727;51.974;20.868;2022-11-15T14:42:31;8.50;1.00
38938;DHT22;24727;51.974;20.868;2022-11-15T14:44:57;8.10;1.00
38938;DHT22;24727;51.974;20.868;2022-11-15T14:47:23;8.20;1.00
38938;DHT22;24727;51.974;20.868;2022-11-15T14:49:51;8.20;1.00
38938;DHT22;24727;51.974;20.868;2022-11-15T14:52:26;8.20;1.00
38938;DHT22;24727;51.974;20.868;2022-11-15T14:54:54;8.20;1.00
38938;DHT22;24727;51.974;20.868;2022-11-15T14:57:22;8.00;1.00
38938;DHT22;24727;51.974;20.868;2022-11-15T14:59:49;8.00;1.00
38938;DHT22;24727;51.974;20.868;2022-11-15T15:02:20;8.00;1.00
38938;DHT22;24727;51.974;20.868;2022-11-15T15:04:49;8.00;1.00
38938;DHT22;24727;51.974;20.868;2022-11-15T15:07:15;8.10;1.00
38938;DHT22;24727;51.974;20.868;2022-11-15T15:09:42;8.10;1.00
38938;DHT22;24727;51.974;20.868;2022-11-15T15:12:21;8.10;1.00
38938;DHT22;24727;51.974;20.868;2022-11-15T15:14:49;8.10;1.00
38938;DHT22;24727;51.974;20.868;2022-11-15T15:17:17;8.10;1.00
38938;DHT22;24727;51.974;20.868;2022-11-15T15:19:51;8.20;1.00
38938;DHT22;24727;51.974;20.868;2022-11-15T15:22:19;8.20;1.00
38938;DHT22;24727;51.974;20.868;2022-11-15T15:24:48;8.20;1.00
38938;DHT22;24727;51.974;20.868;2022-11-15T15:27:14;8.20;1.00
38938;DHT22;24727;51.974;20.868;2022-11-15T15:29:41;8.20;1.00
38938;DHT22;24727;51.974;20.868;2022-11-15T15:32:08;8.10;1.00
38938;DHT22;24727;51.974;20.868;2022-11-15T15:34:35;8.00;1.00
38938;DHT22;24727;51.974;20.868;2022-11-15T15:37:29;7.60;1.00
38938;DHT22;24727;51.974;20.868;2022-11-15T15:39:55;7.40;1.00
38938;DHT22;24727;51.974;20.868;2022-11-15T15:42:22;7.40;1.00
38938;DHT22;24727;51.974;20.868;2022-11-15T15:44:50;7.30;1.00
38938;DHT22;24727;51.974;20.868;2022-11-15T15:47:20;7.30;1.00
38938;DHT22;24727;51.974;20.868;2022-11-15T15:49:49;7.50;1.00
38938;DHT22;24727;51.974;20.868;2022-11-15T15:52:15;7.60;6.40
38938;DHT22;24727;51.974;20.868;2022-11-15T15:54:41;7.80;8.00
38938;DHT22;24727;51.974;20.868;2022-11-15T15:57:14;7.90;1.00
38938;DHT22;24727;51.974;20.868;2022-11-15T15:59:40;8.00;1.00
38938;DHT22;24727;51.974;20.868;2022-11-15T16:02:12;8.00;1.00
38938;DHT22;24727;51.974;20.868;2022-11-15T16:04:38;7.50;1.00
38938;DHT22;24727;51.974;20.868;2022-11-15T16:07:05;7.60;1.00
38938;DHT22;24727;51.974;20.868;2022-11-15T16:09:31;7.70;1.00
38938;DHT22;24727;51.974;20.868;2022-11-15T16:12:16;7.70;1.00
38938;DHT22;24727;51.974;20.868;2022-11-15T16:14:42;7.70;1.00
38938;DHT22;24727;51.974;20.868;2022-11-15T16:17:20;7.80;1.00
38938;DHT22;24727;51.974;20.868;2022-11-15T16:19:47;7.80;1.00
38938;DHT22;24727;51.974;20.868;2022-11-15T16:22:13;7.70;1.00
38938;DHT22;24727;51.974;20.868;2022-11-15T16:24:39;7.80;1.00
38938;DHT22;24727;51.974;20.868;2022-11-15T16:27:17;7.80;1.00
38938;DHT22;24727;51.974;20.868;2022-11-15T16:29:44;8.00;1.00
38938;DHT22;24727;51.974;20.868;2022-11-15T16:32:10;8.00;1.00
38938;DHT22;24727;51.974;20.868;2022-11-15T16:34:36;8.00;1.00
38938;DHT22;24727;51.974;20.868;2022-11-15T16:37:03;7.90;1.00
38938;DHT22;24727;51.974;20.868;2022-11-15T16:39:29;7.90;1.00
38938;DHT22;24727;51.974;20.868;2022-11-15T16:41:59;7.90;1.00
38938;DHT22;24727;51.974;20.868;2022-11-15T16:44:26;8.00;1.00
38938;DHT22;24727;51.974;20.868;2022-11-15T16:46:54;8.00;1.00
38938;DHT22;24727;51.974;20.868;2022-11-15T16:49:21;7.90;1.00
38938;DHT22;24727;51.974;20.868;2022-11-15T16:51:49;7.90;1.00
38938;DHT22;24727;51.974;20.868;2022-11-15T16:54:15;7.80;1.00
38938;DHT22;24727;51.974;20.868;2022-11-15T16:56:42;7.90;1.00
38938;DHT22;24727;51.974;20.868;2022-11-15T16:59:15;7.80;1.00
38938;DHT22;24727;51.974;20.868;2022-11-15T17:01:42;7.80;1.00
38938;DHT22;24727;51.974;20.868;2022-11-15T17:04:18;7.70;1.00
38938;DHT22;24727;51.974;20.868;2022-11-15T17:06:48;7.40;1.00
38938;DHT22;24727;51.974;20.868;2022-11-15T17:09:20;7.30;1.00
38938;DHT22;24727;51.974;20.868;2022-11-15T17:11:49;7.50;1.00
38938;DHT22;24727;51.974;20.868;2022-11-15T17:14:17;7.60;1.00
38938;DHT22;24727;51.974;20.868;2022-11-15T17:16:43;7.70;1.00
38938;DHT22;24727;51.974;20.868;2022-11-15T17:19:15;7.70;1.00
38938;DHT22;24727;51.974;20.868;2022-11-15T17:21:43;7.70;1.00
38938;DHT22;24727;51.974;20.868;2022-11-15T17:24:10;7.60;1.00
38938;DHT22;24727;51.974;20.868;2022-11-15T17:26:37;7.70;1.00
38938;DHT22;24727;51.974;20.868;2022-11-15T17:29:04;7.70;1.00
38938;DHT22;24727;51.974;20.868;2022-11-15T17:31:34;7.70;1.00
38938;DHT22;24727;51.974;20.868;2022-11-15T17:34:02;7.70;1.00
38938;DHT22;24727;51.974;20.868;2022-11-15T17:36:28;7.70;1.00
38938;DHT22;24727;51.974;20.868;2022-11-15T17:38:57;7.60;1.00
38938;DHT22;24727;51.974;20.868;2022-11-15T17:41:23;7.60;1.00
38938;DHT22;24727;51.974;20.868;2022-11-15T17:43:50;7.60;1.00
38938;DHT22;24727;51.974;20.868;2022-11-15T17:46:20;7.60;1.00
38938;DHT22;24727;51.974;20.868;2022-11-15T17:48:47;7.60;1.00
38938;DHT22;24727;51.974;20.868;2022-11-15T17:51:15;7.60;1.00
38938;DHT22;24727;51.974;20.868;2022-11-15T17:53:43;7.60;1.00
38938;DHT22;24727;51.974;20.868;2022-11-15T17:56:12;7.60;1.00
38938;DHT22;24727;51.974;20.868;2022-11-15T17:58:39;7.60;1.00